sensor_id;sensor_type;location;lat;lon;timestamp;P1;durP1;ratioP1;P2;durP2;ratioP2
75680;SDS011;64294;49.176;16.626;2022-12-29T00:02:00;45.47;;;21.63;;
75680;SDS011;64294;49.176;16.626;2022-12-29T00:04:25;47.03;;;23.23;;
75680;SDS011;64294;49.176;16.626;2022-12-29T00:06:51;47.63;;;23.27;;
75680;SDS011;64294;49.176;16.626;2022-12-29T00:09:17;51.45;;;23.20;;
75680;SDS011;64294;49.176;16.626;2022-12-29T00:11:43;45.38;;;21.67;;
75680;SDS011;64294;49.176;16.626;2022-12-29T00:14:09;46.58;;;23.60;;
75680;SDS011;64294;49.176;16.626;2022-12-29T00:16:54;45.70;;;23.50;;
75680;SDS011;64294;49.176;16.626;2022-12-29T00:19:19;47.92;;;22.98;;
75680;SDS011;64294;49.176;16.626;2022-12-29T00:22:04;49.30;;;22.95;;
75680;SDS011;64294;49.176;16.626;2022-12-29T00:24:48;50.22;;;22.55;;
75680;SDS011;64294;49.176;16.626;2022-12-29T00:27:19;46.33;;;22.35;;
75680;SDS011;64294;49.176;16.626;2022-12-29T00:30:08;41.15;;;21.27;;
75680;SDS011;64294;49.176;16.626;2022-12-29T00:32:53;44.53;;;21.42;;
75680;SDS011;64294;49.176;16.626;2022-12-29T00:35:50;47.92;;;21.60;;
75680;SDS011;64294;49.176;16.626;2022-12-29T00:38:19;45.88;;;20.83;;
75680;SDS011;64294;49.176;16.626;2022-12-29T00:41:05;39.83;;;21.23;;
75680;SDS011;64294;49.176;16.626;2022-12-29T00:43:48;41.88;;;20.25;;
75680;SDS011;64294;49.176;16.626;2022-12-29T00:46:35;47.95;;;20.77;;
75680;SDS011;64294;49.176;16.626;2022-12-29T00:49:01;39.05;;;20.63;;
75680;SDS011;64294;49.176;16.626;2022-12-29T00:51:47;47.40;;;21.02;;
75680;SDS011;64294;49.176;16.626;2022-12-29T00:54:14;47.88;;;21.52;;
75680;SDS011;64294;49.176;16.626;2022-12-29T00:56:41;42.30;;;20.20;;
75680;SDS011;64294;49.176;16.626;2022-12-29T00:59:08;47.88;;;22.13;;
75680;SDS011;64294;49.176;16.626;2022-12-29T01:01:35;48.40;;;22.95;;
75680;SDS011;64294;49.176;16.626;2022-12-29T01:04:01;50.95;;;22.95;;
75680;SDS011;64294;49.176;16.626;2022-12-29T01:06:27;46.05;;;21.67;;
75680;SDS011;64294;49.176;16.626;2022-12-29T01:08:52;48.97;;;22.15;;
75680;SDS011;64294;49.176;16.626;2022-12-29T01:11:40;43.30;;;22.05;;
75680;SDS011;64294;49.176;16.626;2022-12-29T01:14:06;49.83;;;23.45;;
75680;SDS011;64294;49.176;16.626;2022-12-29T01:16:32;45.47;;;21.70;;
75680;SDS011;64294;49.176;16.626;2022-12-29T01:18:57;47.13;;;21.05;;
75680;SDS011;64294;49.176;16.626;2022-12-29T01:21:23;46.55;;;22.38;;
75680;SDS011;64294;49.176;16.626;2022-12-29T01:23:50;44.45;;;21.00;;
75680;SDS011;64294;49.176;16.626;2022-12-29T01:26:16;45.88;;;22.33;;
75680;SDS011;64294;49.176;16.626;2022-12-29T01:28:42;45.13;;;21.17;;
75680;SDS011;64294;49.176;16.626;2022-12-29T01:31:09;44.17;;;21.13;;
75680;SDS011;64294;49.176;16.626;2022-12-29T01:33:35;43.20;;;20.70;;
75680;SDS011;64294;49.176;16.626;2022-12-29T01:36:07;49.42;;;20.95;;
75680;SDS011;64294;49.176;16.626;2022-12-29T01:38:38;44.97;;;20.90;;
75680;SDS011;64294;49.176;16.626;2022-12-29T01:41:04;36.35;;;18.70;;
75680;SDS011;64294;49.176;16.626;2022-12-29T01:43:50;42.47;;;20.13;;
75680;SDS011;64294;49.176;16.626;2022-12-29T01:46:34;47.65;;;20.38;;
75680;SDS011;64294;49.176;16.626;2022-12-29T01:51:48;38.35;;;19.33;;
75680;SDS011;64294;49.176;16.626;2022-12-29T01:54:18;42.08;;;19.75;;
75680;SDS011;64294;49.176;16.626;2022-12-29T01:56:49;44.17;;;20.83;;
75680;SDS011;64294;49.176;16.626;2022-12-29T01:59:19;38.75;;;19.48;;
75680;SDS011;64294;49.176;16.626;2022-12-29T02:01:50;40.90;;;19.88;;
75680;SDS011;64294;49.176;16.626;2022-12-29T02:04:16;42.05;;;19.70;;
75680;SDS011;64294;49.176;16.626;2022-12-29T02:06:46;44.70;;;20.63;;
75680;SDS011;64294;49.176;16.626;2022-12-29T02:11:41;33.72;;;18.42;;
75680;SDS011;64294;49.176;16.626;2022-12-29T02:14:10;37.25;;;18.45;;
75680;SDS011;64294;49.176;16.626;2022-12-29T02:22:02;38.72;;;18.45;;
75680;SDS011;64294;49.176;16.626;2022-12-29T02:46:30;34.72;;;17.20;;
75680;SDS011;64294;49.176;16.626;2022-12-29T02:49:09;37.78;;;18.10;;
75680;SDS011;64294;49.176;16.626;2022-12-29T02:52:01;35.63;;;17.63;;
75680;SDS011;64294;49.176;16.626;2022-12-29T02:54:31;36.50;;;18.00;;
75680;SDS011;64294;49.176;16.626;2022-12-29T02:57:13;36.55;;;17.50;;
75680;SDS011;64294;49.176;16.626;2022-12-29T02:59:41;37.30;;;18.08;;
75680;SDS011;64294;49.176;16.626;2022-12-29T03:16:23;36.58;;;17.88;;
75680;SDS011;64294;49.176;16.626;2022-12-29T03:19:00;36.03;;;18.05;;
75680;SDS011;64294;49.176;16.626;2022-12-29T03:24:28;34.47;;;16.40;;
75680;SDS011;64294;49.176;16.626;2022-12-29T03:26:56;35.10;;;17.38;;
75680;SDS011;64294;49.176;16.626;2022-12-29T03:29:26;33.60;;;16.33;;
75680;SDS011;64294;49.176;16.626;2022-12-29T03:31:54;35.13;;;17.02;;
75680;SDS011;64294;49.176;16.626;2022-12-29T03:34:21;36.28;;;17.95;;
75680;SDS011;64294;49.176;16.626;2022-12-29T03:36:53;36.33;;;16.52;;
75680;SDS011;64294;49.176;16.626;2022-12-29T03:39:40;37.67;;;16.48;;
75680;SDS011;64294;49.176;16.626;2022-12-29T03:42:08;36.67;;;17.15;;
75680;SDS011;64294;49.176;16.626;2022-12-29T03:44:44;33.67;;;16.05;;
75680;SDS011;64294;49.176;16.626;2022-12-29T03:47:14;32.75;;;15.40;;
75680;SDS011;64294;49.176;16.626;2022-12-29T03:49:40;35.28;;;16.63;;
75680;SDS011;64294;49.176;16.626;2022-12-29T03:52:06;37.13;;;16.98;;
75680;SDS011;64294;49.176;16.626;2022-12-29T03:54:31;39.20;;;17.70;;
75680;SDS011;64294;49.176;16.626;2022-12-29T03:56:57;34.25;;;17.27;;
75680;SDS011;64294;49.176;16.626;2022-12-29T03:59:23;36.25;;;17.45;;
75680;SDS011;64294;49.176;16.626;2022-12-29T04:01:49;41.72;;;17.15;;
75680;SDS011;64294;49.176;16.626;2022-12-29T04:04:14;32.78;;;16.65;;
75680;SDS011;64294;49.176;16.626;2022-12-29T04:06:40;41.00;;;18.30;;
75680;SDS011;64294;49.176;16.626;2022-12-29T04:09:05;34.80;;;16.55;;
75680;SDS011;64294;49.176;16.626;2022-12-29T04:11:31;36.55;;;17.63;;
75680;SDS011;64294;49.176;16.626;2022-12-29T04:13:56;43.15;;;18.40;;
75680;SDS011;64294;49.176;16.626;2022-12-29T04:16:22;37.72;;;17.17;;
75680;SDS011;64294;49.176;16.626;2022-12-29T04:18:47;38.70;;;18.00;;
75680;SDS011;64294;49.176;16.626;2022-12-29T04:21:12;37.03;;;17.17;;
75680;SDS011;64294;49.176;16.626;2022-12-29T04:23:38;35.03;;;17.05;;
75680;SDS011;64294;49.176;16.626;2022-12-29T04:26:05;38.95;;;18.10;;
75680;SDS011;64294;49.176;16.626;2022-12-29T04:28:34;36.50;;;16.85;;
75680;SDS011;64294;49.176;16.626;2022-12-29T04:31:00;37.58;;;17.52;;
75680;SDS011;64294;49.176;16.626;2022-12-29T04:33:25;34.67;;;17.20;;
75680;SDS011;64294;49.176;16.626;2022-12-29T04:35:51;40.20;;;17.55;;
75680;SDS011;64294;49.176;16.626;2022-12-29T04:38:19;38.97;;;17.65;;
75680;SDS011;64294;49.176;16.626;2022-12-29T04:40:45;33.88;;;17.23;;
75680;SDS011;64294;49.176;16.626;2022-12-29T04:43:10;37.33;;;16.48;;
75680;SDS011;64294;49.176;16.626;2022-12-29T04:45:36;44.22;;;18.83;;
75680;SDS011;64294;49.176;16.626;2022-12-29T04:48:02;44.08;;;18.58;;
75680;SDS011;64294;49.176;16.626;2022-12-29T04:50:28;42.83;;;17.60;;
75680;SDS011;64294;49.176;16.626;2022-12-29T04:52:53;39.30;;;18.05;;
75680;SDS011;64294;49.176;16.626;2022-12-29T04:55:19;31.02;;;16.27;;
75680;SDS011;64294;49.176;16.626;2022-12-29T04:57:45;34.25;;;16.50;;
75680;SDS011;64294;49.176;16.626;2022-12-29T05:00:13;36.70;;;17.40;;
75680;SDS011;64294;49.176;16.626;2022-12-29T05:02:39;31.73;;;15.95;;
75680;SDS011;64294;49.176;16.626;2022-12-29T05:05:04;36.03;;;17.05;;
75680;SDS011;64294;49.176;16.626;2022-12-29T05:07:30;35.83;;;16.90;;
75680;SDS011;64294;49.176;16.626;2022-12-29T05:09:58;34.95;;;16.42;;
75680;SDS011;64294;49.176;16.626;2022-12-29T05:12:23;37.20;;;17.80;;
75680;SDS011;64294;49.176;16.626;2022-12-29T05:14:49;35.47;;;16.35;;
75680;SDS011;64294;49.176;16.626;2022-12-29T05:17:14;37.22;;;17.15;;
75680;SDS011;64294;49.176;16.626;2022-12-29T05:19:40;34.15;;;16.60;;
75680;SDS011;64294;49.176;16.626;2022-12-29T05:22:05;32.35;;;16.63;;
75680;SDS011;64294;49.176;16.626;2022-12-29T05:24:30;37.38;;;16.80;;
75680;SDS011;64294;49.176;16.626;2022-12-29T05:26:56;41.45;;;17.48;;
75680;SDS011;64294;49.176;16.626;2022-12-29T05:29:21;35.75;;;16.50;;
75680;SDS011;64294;49.176;16.626;2022-12-29T05:31:47;33.30;;;16.80;;
75680;SDS011;64294;49.176;16.626;2022-12-29T05:34:12;32.97;;;15.95;;
75680;SDS011;64294;49.176;16.626;2022-12-29T05:36:38;33.70;;;17.05;;
75680;SDS011;64294;49.176;16.626;2022-12-29T05:39:04;34.13;;;16.83;;
75680;SDS011;64294;49.176;16.626;2022-12-29T05:41:30;33.97;;;17.27;;
75680;SDS011;64294;49.176;16.626;2022-12-29T05:43:55;37.42;;;17.63;;
75680;SDS011;64294;49.176;16.626;2022-12-29T05:46:21;37.38;;;16.70;;
75680;SDS011;64294;49.176;16.626;2022-12-29T05:48:46;36.75;;;16.90;;
75680;SDS011;64294;49.176;16.626;2022-12-29T05:51:12;39.75;;;18.98;;
75680;SDS011;64294;49.176;16.626;2022-12-29T05:53:37;35.67;;;17.45;;
75680;SDS011;64294;49.176;16.626;2022-12-29T05:56:03;39.00;;;18.45;;
75680;SDS011;64294;49.176;16.626;2022-12-29T05:58:28;37.15;;;18.80;;
75680;SDS011;64294;49.176;16.626;2022-12-29T06:00:53;37.00;;;16.38;;
75680;SDS011;64294;49.176;16.626;2022-12-29T06:03:19;42.65;;;18.55;;
75680;SDS011;64294;49.176;16.626;2022-12-29T06:05:45;40.47;;;17.92;;
75680;SDS011;64294;49.176;16.626;2022-12-29T06:08:11;34.83;;;16.70;;
75680;SDS011;64294;49.176;16.626;2022-12-29T06:10:37;36.53;;;17.60;;
75680;SDS011;64294;49.176;16.626;2022-12-29T06:13:02;35.50;;;16.67;;
75680;SDS011;64294;49.176;16.626;2022-12-29T06:15:30;35.47;;;17.17;;
75680;SDS011;64294;49.176;16.626;2022-12-29T06:17:56;33.85;;;16.40;;
75680;SDS011;64294;49.176;16.626;2022-12-29T06:20:21;35.38;;;17.48;;
75680;SDS011;64294;49.176;16.626;2022-12-29T06:22:47;39.95;;;18.08;;
75680;SDS011;64294;49.176;16.626;2022-12-29T06:25:12;34.42;;;17.63;;
75680;SDS011;64294;49.176;16.626;2022-12-29T06:27:38;36.30;;;17.13;;
75680;SDS011;64294;49.176;16.626;2022-12-29T06:30:03;36.08;;;16.60;;
75680;SDS011;64294;49.176;16.626;2022-12-29T06:32:29;32.92;;;15.65;;
75680;SDS011;64294;49.176;16.626;2022-12-29T06:34:54;32.60;;;16.42;;
75680;SDS011;64294;49.176;16.626;2022-12-29T06:37:20;31.50;;;16.63;;
75680;SDS011;64294;49.176;16.626;2022-12-29T06:39:45;35.22;;;16.13;;
75680;SDS011;64294;49.176;16.626;2022-12-29T06:42:10;35.30;;;16.13;;
75680;SDS011;64294;49.176;16.626;2022-12-29T06:44:36;34.75;;;17.92;;
75680;SDS011;64294;49.176;16.626;2022-12-29T06:47:01;36.33;;;16.88;;
75680;SDS011;64294;49.176;16.626;2022-12-29T06:49:26;45.58;;;18.75;;
75680;SDS011;64294;49.176;16.626;2022-12-29T06:51:52;35.10;;;18.42;;
75680;SDS011;64294;49.176;16.626;2022-12-29T06:54:17;43.40;;;17.48;;
75680;SDS011;64294;49.176;16.626;2022-12-29T06:56:43;37.78;;;17.88;;
75680;SDS011;64294;49.176;16.626;2022-12-29T06:59:08;38.58;;;17.65;;
75680;SDS011;64294;49.176;16.626;2022-12-29T07:01:35;36.30;;;17.58;;
75680;SDS011;64294;49.176;16.626;2022-12-29T07:04:01;37.05;;;17.20;;
75680;SDS011;64294;49.176;16.626;2022-12-29T07:06:27;48.97;;;19.35;;
75680;SDS011;64294;49.176;16.626;2022-12-29T07:08:52;49.42;;;22.00;;
75680;SDS011;64294;49.176;16.626;2022-12-29T07:11:20;43.33;;;19.70;;
75680;SDS011;64294;49.176;16.626;2022-12-29T07:13:46;42.65;;;18.90;;
75680;SDS011;64294;49.176;16.626;2022-12-29T07:16:11;42.08;;;18.98;;
75680;SDS011;64294;49.176;16.626;2022-12-29T07:18:37;37.10;;;17.02;;
75680;SDS011;64294;49.176;16.626;2022-12-29T07:21:03;36.47;;;15.85;;
75680;SDS011;64294;49.176;16.626;2022-12-29T07:23:28;32.03;;;15.88;;
75680;SDS011;64294;49.176;16.626;2022-12-29T07:26:04;31.15;;;15.18;;
75680;SDS011;64294;49.176;16.626;2022-12-29T07:28:32;33.75;;;15.80;;
75680;SDS011;64294;49.176;16.626;2022-12-29T07:30:58;35.95;;;16.67;;
75680;SDS011;64294;49.176;16.626;2022-12-29T07:33:24;37.08;;;16.45;;
75680;SDS011;64294;49.176;16.626;2022-12-29T07:35:50;35.10;;;16.33;;
75680;SDS011;64294;49.176;16.626;2022-12-29T07:38:16;39.35;;;17.27;;
75680;SDS011;64294;49.176;16.626;2022-12-29T07:40:42;36.47;;;16.70;;
75680;SDS011;64294;49.176;16.626;2022-12-29T07:43:08;33.33;;;16.63;;
75680;SDS011;64294;49.176;16.626;2022-12-29T07:45:33;33.13;;;16.42;;
75680;SDS011;64294;49.176;16.626;2022-12-29T07:47:59;32.13;;;15.90;;
75680;SDS011;64294;49.176;16.626;2022-12-29T07:50:24;31.70;;;15.50;;
75680;SDS011;64294;49.176;16.626;2022-12-29T07:52:49;27.35;;;14.55;;
75680;SDS011;64294;49.176;16.626;2022-12-29T07:55:18;27.52;;;14.43;;
75680;SDS011;64294;49.176;16.626;2022-12-29T07:57:44;30.17;;;14.98;;
75680;SDS011;64294;49.176;16.626;2022-12-29T08:00:09;31.02;;;15.60;;
75680;SDS011;64294;49.176;16.626;2022-12-29T08:02:35;29.08;;;15.50;;
75680;SDS011;64294;49.176;16.626;2022-12-29T08:05:01;28.80;;;15.52;;
75680;SDS011;64294;49.176;16.626;2022-12-29T08:07:27;28.73;;;15.57;;
75680;SDS011;64294;49.176;16.626;2022-12-29T08:09:52;27.80;;;15.57;;
75680;SDS011;64294;49.176;16.626;2022-12-29T08:12:18;27.80;;;15.43;;
75680;SDS011;64294;49.176;16.626;2022-12-29T08:14:44;27.48;;;15.68;;
75680;SDS011;64294;49.176;16.626;2022-12-29T08:17:09;28.33;;;16.60;;
75680;SDS011;64294;49.176;16.626;2022-12-29T08:19:35;27.90;;;15.20;;
75680;SDS011;64294;49.176;16.626;2022-12-29T08:22:00;27.55;;;15.65;;
75680;SDS011;64294;49.176;16.626;2022-12-29T08:24:26;28.00;;;15.43;;
75680;SDS011;64294;49.176;16.626;2022-12-29T08:26:51;25.42;;;15.70;;
75680;SDS011;64294;49.176;16.626;2022-12-29T08:29:17;27.08;;;15.45;;
75680;SDS011;64294;49.176;16.626;2022-12-29T08:31:42;26.30;;;15.20;;
75680;SDS011;64294;49.176;16.626;2022-12-29T08:34:08;28.30;;;14.90;;
75680;SDS011;64294;49.176;16.626;2022-12-29T08:36:33;28.10;;;16.05;;
75680;SDS011;64294;49.176;16.626;2022-12-29T08:38:59;32.60;;;16.75;;
75680;SDS011;64294;49.176;16.626;2022-12-29T08:41:24;28.52;;;16.40;;
75680;SDS011;64294;49.176;16.626;2022-12-29T08:43:50;29.45;;;16.17;;
75680;SDS011;64294;49.176;16.626;2022-12-29T08:46:15;24.80;;;14.25;;
75680;SDS011;64294;49.176;16.626;2022-12-29T08:48:41;23.23;;;13.10;;
75680;SDS011;64294;49.176;16.626;2022-12-29T08:51:06;22.63;;;13.27;;
75680;SDS011;64294;49.176;16.626;2022-12-29T08:53:33;21.75;;;12.02;;
75680;SDS011;64294;49.176;16.626;2022-12-29T08:55:59;23.80;;;11.77;;
75680;SDS011;64294;49.176;16.626;2022-12-29T08:58:25;23.02;;;12.55;;
75680;SDS011;64294;49.176;16.626;2022-12-29T09:00:52;26.73;;;12.23;;
75680;SDS011;64294;49.176;16.626;2022-12-29T09:03:23;21.60;;;11.80;;
75680;SDS011;64294;49.176;16.626;2022-12-29T09:05:52;28.02;;;15.32;;
75680;SDS011;64294;49.176;16.626;2022-12-29T09:08:19;32.47;;;14.77;;
75680;SDS011;64294;49.176;16.626;2022-12-29T09:10:45;31.52;;;15.55;;
75680;SDS011;64294;49.176;16.626;2022-12-29T09:13:11;29.08;;;14.60;;
75680;SDS011;64294;49.176;16.626;2022-12-29T09:15:38;23.63;;;13.35;;
75680;SDS011;64294;49.176;16.626;2022-12-29T09:18:04;24.48;;;13.25;;
75680;SDS011;64294;49.176;16.626;2022-12-29T09:20:30;27.58;;;13.80;;
75680;SDS011;64294;49.176;16.626;2022-12-29T09:22:55;24.50;;;13.13;;
75680;SDS011;64294;49.176;16.626;2022-12-29T09:25:21;24.38;;;13.10;;
75680;SDS011;64294;49.176;16.626;2022-12-29T09:27:49;31.58;;;15.27;;
75680;SDS011;64294;49.176;16.626;2022-12-29T09:30:17;27.05;;;14.57;;
75680;SDS011;64294;49.176;16.626;2022-12-29T09:32:43;19.10;;;11.95;;
75680;SDS011;64294;49.176;16.626;2022-12-29T09:35:08;19.60;;;11.88;;
75680;SDS011;64294;49.176;16.626;2022-12-29T09:37:33;22.95;;;12.80;;
75680;SDS011;64294;49.176;16.626;2022-12-29T09:39:59;27.05;;;13.05;;
75680;SDS011;64294;49.176;16.626;2022-12-29T09:47:44;20.92;;;12.75;;
75680;SDS011;64294;49.176;16.626;2022-12-29T09:52:40;25.08;;;13.40;;
75680;SDS011;64294;49.176;16.626;2022-12-29T09:55:15;22.75;;;12.88;;
75680;SDS011;64294;49.176;16.626;2022-12-29T10:05:38;20.73;;;11.27;;
75680;SDS011;64294;49.176;16.626;2022-12-29T10:14:12;23.58;;;11.90;;
75680;SDS011;64294;49.176;16.626;2022-12-29T10:25:20;21.80;;;11.43;;
75680;SDS011;64294;49.176;16.626;2022-12-29T10:27:50;22.00;;;11.98;;
75680;SDS011;64294;49.176;16.626;2022-12-29T10:30:17;21.02;;;12.00;;
75680;SDS011;64294;49.176;16.626;2022-12-29T10:35:30;21.95;;;13.18;;
75680;SDS011;64294;49.176;16.626;2022-12-29T10:38:15;20.80;;;13.15;;
75680;SDS011;64294;49.176;16.626;2022-12-29T10:43:31;19.90;;;12.63;;
75680;SDS011;64294;49.176;16.626;2022-12-29T10:46:02;20.52;;;13.95;;
75680;SDS011;64294;49.176;16.626;2022-12-29T10:48:33;21.45;;;13.30;;
75680;SDS011;64294;49.176;16.626;2022-12-29T10:51:09;19.98;;;12.98;;
75680;SDS011;64294;49.176;16.626;2022-12-29T10:53:43;21.75;;;14.20;;
75680;SDS011;64294;49.176;16.626;2022-12-29T10:59:03;22.70;;;14.07;;
75680;SDS011;64294;49.176;16.626;2022-12-29T11:01:43;22.20;;;14.18;;
75680;SDS011;64294;49.176;16.626;2022-12-29T11:07:06;23.25;;;14.32;;
75680;SDS011;64294;49.176;16.626;2022-12-29T11:09:33;26.38;;;14.93;;
75680;SDS011;64294;49.176;16.626;2022-12-29T11:12:15;21.77;;;13.75;;
75680;SDS011;64294;49.176;16.626;2022-12-29T11:14:42;22.75;;;13.95;;
75680;SDS011;64294;49.176;16.626;2022-12-29T11:17:12;23.42;;;14.85;;
75680;SDS011;64294;49.176;16.626;2022-12-29T11:19:40;27.88;;;14.90;;
75680;SDS011;64294;49.176;16.626;2022-12-29T11:22:22;34.63;;;15.80;;
75680;SDS011;64294;49.176;16.626;2022-12-29T11:24:50;26.45;;;15.07;;
75680;SDS011;64294;49.176;16.626;2022-12-29T11:27:21;25.08;;;14.18;;
75680;SDS011;64294;49.176;16.626;2022-12-29T11:29:49;24.02;;;15.02;;
75680;SDS011;64294;49.176;16.626;2022-12-29T11:34:46;27.42;;;15.15;;
75680;SDS011;64294;49.176;16.626;2022-12-29T11:37:12;35.50;;;15.02;;
75680;SDS011;64294;49.176;16.626;2022-12-29T11:42:22;27.30;;;14.38;;
75680;SDS011;64294;49.176;16.626;2022-12-29T11:47:59;36.95;;;14.23;;
75680;SDS011;64294;49.176;16.626;2022-12-29T11:50:31;29.85;;;14.25;;
75680;SDS011;64294;49.176;16.626;2022-12-29T11:53:00;34.80;;;14.48;;
75680;SDS011;64294;49.176;16.626;2022-12-29T11:55:28;42.92;;;15.10;;
75680;SDS011;64294;49.176;16.626;2022-12-29T11:57:55;42.00;;;15.25;;
75680;SDS011;64294;49.176;16.626;2022-12-29T12:00:24;31.38;;;14.27;;
75680;SDS011;64294;49.176;16.626;2022-12-29T12:02:59;40.30;;;15.00;;
75680;SDS011;64294;49.176;16.626;2022-12-29T12:05:46;36.92;;;15.32;;
75680;SDS011;64294;49.176;16.626;2022-12-29T12:08:18;38.00;;;14.95;;
75680;SDS011;64294;49.176;16.626;2022-12-29T12:13:27;42.25;;;15.57;;
75680;SDS011;64294;49.176;16.626;2022-12-29T12:16:06;41.70;;;15.15;;
75680;SDS011;64294;49.176;16.626;2022-12-29T12:21:13;35.10;;;15.15;;
75680;SDS011;64294;49.176;16.626;2022-12-29T12:23:58;34.88;;;14.98;;
75680;SDS011;64294;49.176;16.626;2022-12-29T12:34:55;27.83;;;15.77;;
75680;SDS011;64294;49.176;16.626;2022-12-29T12:51:18;27.02;;;15.13;;
75680;SDS011;64294;49.176;16.626;2022-12-29T13:05:00;30.02;;;16.58;;
75680;SDS011;64294;49.176;16.626;2022-12-29T13:10:41;30.38;;;16.67;;
75680;SDS011;64294;49.176;16.626;2022-12-29T13:16:09;28.85;;;16.08;;
75680;SDS011;64294;49.176;16.626;2022-12-29T13:27:00;27.85;;;15.30;;
75680;SDS011;64294;49.176;16.626;2022-12-29T13:29:49;28.42;;;15.77;;
75680;SDS011;64294;49.176;16.626;2022-12-29T13:32:32;27.05;;;16.08;;
75680;SDS011;64294;49.176;16.626;2022-12-29T13:35:07;28.13;;;16.17;;
75680;SDS011;64294;49.176;16.626;2022-12-29T13:40:43;31.13;;;15.32;;
75680;SDS011;64294;49.176;16.626;2022-12-29T13:43:12;28.52;;;16.20;;
75680;SDS011;64294;49.176;16.626;2022-12-29T13:45:40;30.08;;;16.52;;
75680;SDS011;64294;49.176;16.626;2022-12-29T13:50:53;29.33;;;16.45;;
75680;SDS011;64294;49.176;16.626;2022-12-29T13:53:40;31.42;;;16.80;;
75680;SDS011;64294;49.176;16.626;2022-12-29T14:04:24;26.95;;;16.13;;
75680;SDS011;64294;49.176;16.626;2022-12-29T14:14:45;32.40;;;18.08;;
75680;SDS011;64294;49.176;16.626;2022-12-29T14:17:11;31.73;;;18.00;;
75680;SDS011;64294;49.176;16.626;2022-12-29T14:19:39;36.10;;;19.42;;
75680;SDS011;64294;49.176;16.626;2022-12-29T14:22:08;40.45;;;22.58;;
75680;SDS011;64294;49.176;16.626;2022-12-29T14:37:29;35.97;;;19.02;;
75680;SDS011;64294;49.176;16.626;2022-12-29T14:40:04;37.20;;;20.20;;
75680;SDS011;64294;49.176;16.626;2022-12-29T14:42:38;37.15;;;20.15;;
75680;SDS011;64294;49.176;16.626;2022-12-29T14:47:40;36.45;;;20.27;;
75680;SDS011;64294;49.176;16.626;2022-12-29T14:50:24;36.88;;;19.80;;
75680;SDS011;64294;49.176;16.626;2022-12-29T14:55:47;39.92;;;21.45;;
75680;SDS011;64294;49.176;16.626;2022-12-29T14:58:29;43.38;;;23.60;;
75680;SDS011;64294;49.176;16.626;2022-12-29T15:00:58;43.70;;;23.40;;
75680;SDS011;64294;49.176;16.626;2022-12-29T15:05:57;52.72;;;26.85;;
75680;SDS011;64294;49.176;16.626;2022-12-29T15:08:30;46.17;;;24.85;;
75680;SDS011;64294;49.176;16.626;2022-12-29T15:13:38;50.95;;;25.90;;
75680;SDS011;64294;49.176;16.626;2022-12-29T15:18:55;53.38;;;27.42;;
75680;SDS011;64294;49.176;16.626;2022-12-29T15:21:24;49.42;;;26.65;;
75680;SDS011;64294;49.176;16.626;2022-12-29T15:23:51;51.35;;;27.70;;
75680;SDS011;64294;49.176;16.626;2022-12-29T15:26:18;49.22;;;26.48;;
75680;SDS011;64294;49.176;16.626;2022-12-29T15:28:48;47.88;;;25.10;;
75680;SDS011;64294;49.176;16.626;2022-12-29T15:31:16;57.60;;;28.15;;
75680;SDS011;64294;49.176;16.626;2022-12-29T15:34:01;53.75;;;28.75;;
75680;SDS011;64294;49.176;16.626;2022-12-29T15:36:39;52.95;;;27.98;;
75680;SDS011;64294;49.176;16.626;2022-12-29T15:42:07;49.60;;;24.73;;
75680;SDS011;64294;49.176;16.626;2022-12-29T15:44:46;48.83;;;25.45;;
75680;SDS011;64294;49.176;16.626;2022-12-29T15:47:12;42.33;;;23.58;;
75680;SDS011;64294;49.176;16.626;2022-12-29T15:49:43;43.65;;;23.33;;
75680;SDS011;64294;49.176;16.626;2022-12-29T15:52:10;47.80;;;23.25;;
75680;SDS011;64294;49.176;16.626;2022-12-29T15:54:36;48.42;;;25.35;;
75680;SDS011;64294;49.176;16.626;2022-12-29T15:57:02;53.65;;;26.92;;
75680;SDS011;64294;49.176;16.626;2022-12-29T15:59:30;52.50;;;26.75;;
75680;SDS011;64294;49.176;16.626;2022-12-29T16:01:58;55.60;;;27.42;;
75680;SDS011;64294;49.176;16.626;2022-12-29T16:04:26;56.65;;;27.05;;
75680;SDS011;64294;49.176;16.626;2022-12-29T16:06:58;54.03;;;28.17;;
75680;SDS011;64294;49.176;16.626;2022-12-29T16:12:17;48.63;;;25.67;;
75680;SDS011;64294;49.176;16.626;2022-12-29T16:17:13;50.22;;;24.65;;
75680;SDS011;64294;49.176;16.626;2022-12-29T16:19:52;46.45;;;24.65;;
75680;SDS011;64294;49.176;16.626;2022-12-29T16:22:30;43.60;;;23.60;;
75680;SDS011;64294;49.176;16.626;2022-12-29T16:24:59;47.78;;;23.83;;
75680;SDS011;64294;49.176;16.626;2022-12-29T16:27:37;44.55;;;23.73;;
75680;SDS011;64294;49.176;16.626;2022-12-29T16:30:07;48.35;;;24.38;;
75680;SDS011;64294;49.176;16.626;2022-12-29T16:32:45;48.58;;;23.55;;
75680;SDS011;64294;49.176;16.626;2022-12-29T16:35:16;47.65;;;24.73;;
75680;SDS011;64294;49.176;16.626;2022-12-29T16:37:47;51.80;;;24.80;;
75680;SDS011;64294;49.176;16.626;2022-12-29T16:42:59;59.78;;;26.67;;
75680;SDS011;64294;49.176;16.626;2022-12-29T16:50:39;51.97;;;26.73;;
75680;SDS011;64294;49.176;16.626;2022-12-29T16:53:06;55.53;;;27.63;;
75680;SDS011;64294;49.176;16.626;2022-12-29T16:55:50;53.60;;;26.77;;
75680;SDS011;64294;49.176;16.626;2022-12-29T16:58:18;46.65;;;24.58;;
75680;SDS011;64294;49.176;16.626;2022-12-29T17:00:47;50.05;;;25.75;;
75680;SDS011;64294;49.176;16.626;2022-12-29T17:03:13;52.95;;;26.52;;
75680;SDS011;64294;49.176;16.626;2022-12-29T17:05:40;44.42;;;22.90;;
75680;SDS011;64294;49.176;16.626;2022-12-29T17:08:16;53.15;;;26.77;;
75680;SDS011;64294;49.176;16.626;2022-12-29T17:10:56;52.70;;;25.25;;
75680;SDS011;64294;49.176;16.626;2022-12-29T17:13:40;45.63;;;24.55;;
75680;SDS011;64294;49.176;16.626;2022-12-29T17:16:05;51.75;;;25.38;;
75680;SDS011;64294;49.176;16.626;2022-12-29T17:18:33;51.30;;;27.17;;
75680;SDS011;64294;49.176;16.626;2022-12-29T17:20:59;49.50;;;25.23;;
75680;SDS011;64294;49.176;16.626;2022-12-29T17:23:25;51.40;;;24.58;;
75680;SDS011;64294;49.176;16.626;2022-12-29T17:25:50;56.60;;;26.92;;
75680;SDS011;64294;49.176;16.626;2022-12-29T17:28:18;53.58;;;27.08;;
75680;SDS011;64294;49.176;16.626;2022-12-29T17:30:47;64.75;;;31.10;;
75680;SDS011;64294;49.176;16.626;2022-12-29T17:33:14;62.30;;;29.77;;
75680;SDS011;64294;49.176;16.626;2022-12-29T17:35:42;53.47;;;26.88;;
75680;SDS011;64294;49.176;16.626;2022-12-29T17:38:21;53.78;;;25.85;;
75680;SDS011;64294;49.176;16.626;2022-12-29T17:40:50;58.90;;;27.85;;
75680;SDS011;64294;49.176;16.626;2022-12-29T17:43:16;63.85;;;29.45;;
75680;SDS011;64294;49.176;16.626;2022-12-29T17:45:42;63.72;;;30.33;;
75680;SDS011;64294;49.176;16.626;2022-12-29T17:48:11;61.38;;;29.38;;
75680;SDS011;64294;49.176;16.626;2022-12-29T17:50:38;62.65;;;30.27;;
75680;SDS011;64294;49.176;16.626;2022-12-29T17:53:14;61.53;;;30.38;;
75680;SDS011;64294;49.176;16.626;2022-12-29T17:55:43;63.55;;;30.67;;
75680;SDS011;64294;49.176;16.626;2022-12-29T18:00:49;61.67;;;27.50;;